createdAt,value
2017-03-18T00:01:00.493Z,0
2017-03-18T00:02:11.482Z,0
2017-03-18T00:03:22.472Z,0
2017-03-18T00:04:33.496Z,0
2017-03-18T00:05:44.727Z,0
2017-03-18T00:06:55.925Z,0
2017-03-18T00:08:07.128Z,0
2017-03-18T00:09:18.118Z,0
2017-03-18T00:10:29.108Z,0
2017-03-18T00:11:40.138Z,0
2017-03-18T00:12:51.132Z,0
2017-03-18T00:14:02.129Z,0
2017-03-18T00:15:13.140Z,0
2017-03-18T00:16:24.372Z,0
2017-03-18T00:17:35.366Z,0
2017-03-18T00:18:46.369Z,0
2017-03-18T00:19:57.364Z,0
2017-03-18T00:21:08.351Z,0
2017-03-18T00:22:19.791Z,0
2017-03-18T00:23:30.785Z,0
2017-03-18T00:24:41.785Z,0
2017-03-18T00:25:52.774Z,0
2017-03-18T00:27:03.762Z,0
2017-03-18T00:28:14.754Z,0
2017-03-18T00:29:25.957Z,0
2017-03-18T00:30:36.945Z,0
2017-03-18T00:31:47.943Z,0
2017-03-18T00:32:58.937Z,0
2017-03-18T00:34:10.182Z,0
2017-03-18T00:35:21.176Z,0
2017-03-18T00:36:32.166Z,0
2017-03-18T00:37:43.359Z,0
2017-03-18T00:38:54.558Z,0
2017-03-18T00:40:05.543Z,0
2017-03-18T00:41:16.526Z,0
2017-03-18T00:42:27.519Z,0
2017-03-18T00:43:38.761Z,0
2017-03-18T00:44:49.752Z,0
2017-03-18T00:46:00.933Z,0
2017-03-18T00:47:11.921Z,0
2017-03-18T00:48:22.910Z,0
2017-03-18T00:49:33.900Z,0
2017-03-18T00:50:44.891Z,0
2017-03-18T00:51:55.872Z,0
2017-03-18T00:53:06.863Z,0
2017-03-18T00:54:18.109Z,0
2017-03-18T00:55:29.545Z,0
2017-03-18T00:56:40.935Z,0
2017-03-18T00:57:52.538Z,0
2017-03-18T00:59:03.539Z,0
2017-03-18T01:00:14.563Z,0
2017-03-18T01:01:25.554Z,0
2017-03-18T01:02:36.538Z,0
2017-03-18T01:03:47.527Z,0
2017-03-18T01:04:58.797Z,0
2017-03-18T01:06:09.795Z,0
2017-03-18T01:07:20.985Z,0
2017-03-18T01:08:32.167Z,0
2017-03-18T01:09:43.160Z,0
2017-03-18T01:10:54.193Z,0
2017-03-18T01:12:05.183Z,0
2017-03-18T01:13:16.172Z,0
2017-03-18T01:14:27.582Z,0
2017-03-18T01:15:38.575Z,0
2017-03-18T01:16:49.759Z,0
2017-03-18T01:18:00.950Z,0
2017-03-18T01:19:12.146Z,0
2017-03-18T01:20:23.142Z,0
2017-03-18T01:21:34.137Z,0
2017-03-18T01:22:45.184Z,0
2017-03-18T01:23:56.195Z,0
2017-03-18T01:25:07.178Z,0
2017-03-18T01:26:18.165Z,0
2017-03-18T01:27:29.153Z,0
2017-03-18T01:28:40.154Z,0
2017-03-18T01:29:51.143Z,0
2017-03-18T01:31:02.126Z,0
2017-03-18T01:32:13.569Z,0
2017-03-18T01:33:24.557Z,0
2017-03-18T01:34:35.758Z,0
2017-03-18T01:35:47.154Z,0
2017-03-18T01:36:58.137Z,0
2017-03-18T01:38:09.111Z,0
2017-03-18T01:39:20.101Z,0
2017-03-18T01:40:31.087Z,0
2017-03-18T01:41:42.269Z,0
2017-03-18T01:42:53.307Z,0
2017-03-18T01:44:04.298Z,0
2017-03-18T01:45:15.285Z,0
2017-03-18T01:46:26.277Z,0
2017-03-18T01:47:37.255Z,0
2017-03-18T01:48:48.255Z,0
2017-03-18T01:49:59.252Z,0
2017-03-18T01:51:10.238Z,0
2017-03-18T01:52:21.428Z,0
2017-03-18T01:53:32.678Z,0
2017-03-18T01:54:43.682Z,0
2017-03-18T01:55:54.670Z,0
2017-03-18T01:57:05.650Z,0
2017-03-18T01:58:16.636Z,0
2017-03-18T01:59:27.684Z,0
2017-03-18T02:00:38.661Z,0
2017-03-18T02:01:49.652Z,0
2017-03-18T02:03:00.648Z,0
2017-03-18T02:04:11.665Z,0
2017-03-18T02:05:22.700Z,0
2017-03-18T02:06:33.896Z,0
2017-03-18T02:07:44.881Z,0
2017-03-18T02:08:55.875Z,0
2017-03-18T02:10:06.869Z,0
2017-03-18T02:11:17.865Z,0
2017-03-18T02:12:28.853Z,0
2017-03-18T02:13:39.843Z,0
2017-03-18T02:14:51.043Z,0
2017-03-18T02:16:02.079Z,0
2017-03-18T02:17:13.067Z,0
2017-03-18T02:18:24.065Z,0
2017-03-18T02:19:35.248Z,0
2017-03-18T02:20:46.230Z,0
2017-03-18T02:21:57.418Z,0
2017-03-18T02:23:08.406Z,0
2017-03-18T02:24:19.401Z,0
2017-03-18T02:25:30.387Z,0
2017-03-18T02:26:41.415Z,0
2017-03-18T02:27:52.419Z,0
2017-03-18T02:29:03.423Z,0
2017-03-18T02:30:14.416Z,0
2017-03-18T02:31:25.398Z,0
2017-03-18T02:32:36.396Z,0
2017-03-18T02:33:47.384Z,0
2017-03-18T02:34:58.367Z,0
2017-03-18T02:36:09.358Z,0
2017-03-18T02:37:20.596Z,0
2017-03-18T02:38:31.785Z,0
2017-03-18T02:39:42.785Z,0
2017-03-18T02:40:53.773Z,0
2017-03-18T02:42:04.791Z,0
2017-03-18T02:43:15.788Z,0
2017-03-18T02:44:27.044Z,0
2017-03-18T02:45:38.032Z,0
2017-03-18T02:46:49.224Z,0
2017-03-18T02:48:00.271Z,0
2017-03-18T02:49:11.262Z,0
2017-03-18T02:50:22.247Z,0
2017-03-18T02:51:33.234Z,0
2017-03-18T02:52:44.218Z,0
2017-03-18T02:53:55.214Z,0
2017-03-18T02:55:06.210Z,0
2017-03-18T02:56:17.192Z,0
2017-03-18T02:57:28.186Z,0
2017-03-18T02:58:39.179Z,0
2017-03-18T02:59:50.166Z,0
2017-03-18T03:01:01.161Z,0
2017-03-18T03:02:12.153Z,0
2017-03-18T03:03:23.152Z,0
2017-03-18T03:04:34.195Z,0
2017-03-18T03:05:45.392Z,0
2017-03-18T03:06:56.392Z,0
2017-03-18T03:08:07.379Z,0
2017-03-18T03:09:18.368Z,0
2017-03-18T03:10:29.355Z,0
2017-03-18T03:11:40.342Z,0
2017-03-18T03:12:51.339Z,0
2017-03-18T03:14:02.344Z,0
2017-03-18T03:15:13.562Z,0
2017-03-18T03:16:24.752Z,0
2017-03-18T03:17:36.144Z,0
2017-03-18T03:18:47.148Z,0
2017-03-18T03:19:58.406Z,0
2017-03-18T03:21:09.398Z,0
2017-03-18T03:22:20.390Z,0
2017-03-18T03:23:31.587Z,0
2017-03-18T03:24:42.578Z,0
2017-03-18T03:25:53.615Z,0
2017-03-18T03:27:04.604Z,0
2017-03-18T03:28:15.797Z,0
2017-03-18T03:29:26.993Z,0
2017-03-18T03:30:38.181Z,0
2017-03-18T03:31:49.169Z,0
2017-03-18T03:33:00.159Z,0
2017-03-18T03:34:11.349Z,0
2017-03-18T03:35:22.339Z,0
2017-03-18T03:36:33.408Z,0
2017-03-18T03:37:44.421Z,0
2017-03-18T03:38:55.418Z,0
2017-03-18T03:40:06.428Z,0
2017-03-18T03:41:17.611Z,0
2017-03-18T03:42:28.595Z,0
2017-03-18T03:43:39.793Z,0
2017-03-18T03:44:50.786Z,0
2017-03-18T03:46:01.979Z,0
2017-03-18T03:47:12.991Z,0
2017-03-18T03:48:23.982Z,0
2017-03-18T03:49:34.977Z,0
2017-03-18T03:50:45.959Z,0
2017-03-18T03:51:56.946Z,0
2017-03-18T03:53:07.988Z,0
2017-03-18T03:54:18.978Z,0
2017-03-18T03:55:30.177Z,0
2017-03-18T03:56:41.161Z,0
2017-03-18T03:57:52.158Z,0
2017-03-18T03:59:03.154Z,0
2017-03-18T04:00:14.146Z,0
2017-03-18T04:01:25.132Z,0
2017-03-18T04:02:36.128Z,0
2017-03-18T04:03:47.379Z,0
2017-03-18T04:04:58.377Z,0
2017-03-18T04:06:09.372Z,0
2017-03-18T04:07:20.356Z,0
2017-03-18T04:08:31.344Z,0
2017-03-18T04:09:42.341Z,0
2017-03-18T04:10:53.518Z,0
2017-03-18T04:12:04.513Z,0
2017-03-18T04:13:15.504Z,0
2017-03-18T04:14:26.552Z,0
2017-03-18T04:15:37.537Z,0
2017-03-18T04:16:48.733Z,0
2017-03-18T04:17:59.923Z,0
2017-03-18T04:19:10.918Z,0
2017-03-18T04:20:21.915Z,0
2017-03-18T04:21:32.914Z,0
2017-03-18T04:22:43.904Z,0
2017-03-18T04:23:54.911Z,0
2017-03-18T04:25:05.949Z,0
2017-03-18T04:26:16.970Z,0
2017-03-18T04:27:27.957Z,0
2017-03-18T04:28:38.967Z,0
2017-03-18T04:29:50.172Z,0
2017-03-18T04:31:01.572Z,0
2017-03-18T04:32:12.569Z,0
2017-03-18T04:33:23.569Z,0
2017-03-18T04:34:34.547Z,0
2017-03-18T04:35:45.541Z,0
2017-03-18T04:36:56.943Z,0
2017-03-18T04:38:07.938Z,0
2017-03-18T04:39:18.931Z,0
2017-03-18T04:40:29.984Z,0
2017-03-18T04:41:40.981Z,0
2017-03-18T04:42:51.974Z,0
2017-03-18T04:44:02.969Z,0
2017-03-18T04:45:13.956Z,0
2017-03-18T04:46:24.944Z,0
2017-03-18T04:47:35.938Z,0
2017-03-18T04:48:46.943Z,0
2017-03-18T04:49:57.930Z,0
2017-03-18T04:51:08.976Z,0
2017-03-18T04:52:19.963Z,0
2017-03-18T04:53:30.959Z,0
2017-03-18T04:54:41.955Z,0
2017-03-18T04:55:52.941Z,0
2017-03-18T04:57:03.918Z,0
2017-03-18T04:58:14.910Z,0
2017-03-18T04:59:25.923Z,0
2017-03-18T05:00:37.113Z,0
2017-03-18T05:01:48.363Z,0
2017-03-18T05:02:59.363Z,0
2017-03-18T05:04:10.354Z,0
2017-03-18T05:05:21.343Z,0
2017-03-18T05:06:32.335Z,0
2017-03-18T05:07:43.532Z,0
2017-03-18T05:08:54.518Z,0
2017-03-18T05:10:05.518Z,0
2017-03-18T05:11:16.510Z,0
2017-03-18T05:12:27.953Z,0
2017-03-18T05:13:39.145Z,0
2017-03-18T05:14:50.142Z,0
2017-03-18T05:16:01.349Z,0
2017-03-18T05:17:12.338Z,4
2017-03-18T05:18:23.406Z,4
2017-03-18T05:19:34.406Z,0
2017-03-18T05:20:45.431Z,4
2017-03-18T05:21:56.419Z,4
2017-03-18T05:23:07.622Z,4
2017-03-18T05:24:18.809Z,8
2017-03-18T05:25:29.795Z,4
2017-03-18T05:26:40.793Z,8
2017-03-18T05:27:51.781Z,8
2017-03-18T05:29:02.775Z,8
2017-03-18T05:30:14.016Z,12
2017-03-18T05:31:25.215Z,8
2017-03-18T05:32:36.214Z,12
2017-03-18T05:33:47.205Z,16
2017-03-18T05:34:58.194Z,20
2017-03-18T05:36:09.385Z,16
2017-03-18T05:37:20.571Z,24
2017-03-18T05:38:31.568Z,28
2017-03-18T05:39:42.618Z,28
2017-03-18T05:40:53.807Z,28
2017-03-18T05:42:04.996Z,32
2017-03-18T05:43:15.988Z,44
2017-03-18T05:44:26.998Z,52
2017-03-18T05:45:37.985Z,56
2017-03-18T05:46:48.974Z,56
2017-03-18T05:47:59.972Z,72
2017-03-18T05:49:10.960Z,56
2017-03-18T05:50:22.012Z,60
2017-03-18T05:51:33.001Z,64
2017-03-18T05:52:44.194Z,72
2017-03-18T05:53:55.191Z,80
2017-03-18T05:55:06.384Z,96
2017-03-18T05:56:17.368Z,116
2017-03-18T05:57:28.361Z,108
2017-03-18T05:58:39.360Z,88
2017-03-18T05:59:50.558Z,84
2017-03-18T06:01:01.606Z,84
2017-03-18T06:02:12.597Z,84
2017-03-18T06:03:23.596Z,84
2017-03-18T06:04:34.796Z,88
2017-03-18T06:05:45.985Z,112
2017-03-18T06:06:57.027Z,156
2017-03-18T06:08:08.010Z,196
2017-03-18T06:09:19.009Z,196
2017-03-18T06:10:30.004Z,152
2017-03-18T06:11:41.001Z,176
2017-03-18T06:12:52.005Z,164
2017-03-18T06:14:03.193Z,176
2017-03-18T06:15:14.186Z,196
2017-03-18T06:16:25.171Z,220
2017-03-18T06:17:36.159Z,260
2017-03-18T06:18:47.403Z,240
2017-03-18T06:19:58.402Z,204
2017-03-18T06:21:09.422Z,212
2017-03-18T06:22:20.620Z,252
2017-03-18T06:23:31.639Z,248
2017-03-18T06:24:42.650Z,340
2017-03-18T06:25:53.640Z,372
2017-03-18T06:27:04.634Z,392
2017-03-18T06:28:15.883Z,476
2017-03-18T06:29:26.886Z,392
2017-03-18T06:30:37.872Z,468
2017-03-18T06:31:48.857Z,364
2017-03-18T06:32:59.860Z,360
2017-03-18T06:34:10.855Z,336
2017-03-18T06:35:21.858Z,372
2017-03-18T06:36:33.049Z,484
2017-03-18T06:37:44.041Z,512
2017-03-18T06:38:55.297Z,644
2017-03-18T06:40:06.291Z,700
2017-03-18T06:41:17.281Z,764
2017-03-18T06:42:28.269Z,684
2017-03-18T06:43:39.269Z,784
2017-03-18T06:44:50.509Z,820
2017-03-18T06:46:01.489Z,620
2017-03-18T06:47:12.472Z,560
2017-03-18T06:48:23.465Z,640
2017-03-18T06:49:34.908Z,680
2017-03-18T06:50:46.094Z,760
2017-03-18T06:51:57.084Z,776
2017-03-18T06:53:08.076Z,728
2017-03-18T06:54:19.068Z,756
2017-03-18T06:55:30.124Z,676
2017-03-18T06:56:41.102Z,628
2017-03-18T06:57:52.131Z,516
2017-03-18T06:59:03.327Z,612
2017-03-18T07:00:14.310Z,676
2017-03-18T07:01:25.299Z,704
2017-03-18T07:02:36.490Z,712
2017-03-18T07:03:47.476Z,772
2017-03-18T07:04:58.460Z,672
2017-03-18T07:06:09.447Z,652
2017-03-18T07:07:20.433Z,640
2017-03-18T07:08:31.425Z,652
2017-03-18T07:09:42.412Z,644
2017-03-18T07:10:53.601Z,608
2017-03-18T07:12:04.644Z,708
2017-03-18T07:13:15.682Z,820
2017-03-18T07:14:26.710Z,964
2017-03-18T07:15:37.706Z,740
2017-03-18T07:16:48.692Z,768
2017-03-18T07:17:59.686Z,824
2017-03-18T07:19:11.286Z,668
2017-03-18T07:20:22.673Z,800
2017-03-18T07:21:33.667Z,968
2017-03-18T07:22:44.725Z,916
2017-03-18T07:23:55.723Z,1056
2017-03-18T07:25:06.921Z,1340
2017-03-18T07:26:17.908Z,1404
2017-03-18T07:27:28.887Z,1404
2017-03-18T07:28:40.284Z,1320
2017-03-18T07:29:51.278Z,1284
2017-03-18T07:31:02.305Z,1116
2017-03-18T07:32:13.298Z,1048
2017-03-18T07:33:24.603Z,1112
2017-03-18T07:34:35.598Z,1188
2017-03-18T07:35:46.592Z,1204
2017-03-18T07:36:57.787Z,1320
2017-03-18T07:38:08.778Z,1536
2017-03-18T07:39:19.982Z,1728
2017-03-18T07:40:31.012Z,1484
2017-03-18T07:41:41.991Z,1840
2017-03-18T07:42:52.988Z,1624
2017-03-18T07:44:04.038Z,1444
2017-03-18T07:45:15.024Z,1580
2017-03-18T07:46:26.015Z,1784
2017-03-18T07:47:37.207Z,1936
2017-03-18T07:48:48.215Z,1752
2017-03-18T07:49:59.210Z,1876
2017-03-18T07:51:10.197Z,1716
2017-03-18T07:52:21.398Z,1792
2017-03-18T07:53:32.603Z,1716
2017-03-18T07:54:43.882Z,1496
2017-03-18T07:55:54.880Z,1340
2017-03-18T07:57:05.885Z,1168
2017-03-18T07:58:16.890Z,1172
2017-03-18T07:59:27.894Z,1132
2017-03-18T08:00:39.081Z,1352
2017-03-18T08:01:50.073Z,1228
2017-03-18T08:03:01.273Z,1316
2017-03-18T08:04:12.267Z,1256
2017-03-18T08:05:23.310Z,1820
2017-03-18T08:06:34.501Z,1800
2017-03-18T08:07:45.497Z,2208
2017-03-18T08:08:56.496Z,2048
2017-03-18T08:10:07.711Z,1628
2017-03-18T08:11:18.896Z,1512
2017-03-18T08:12:29.885Z,1676
2017-03-18T08:13:40.883Z,1816
2017-03-18T08:14:51.884Z,1616
2017-03-18T08:16:03.179Z,1348
2017-03-18T08:17:14.164Z,1640
2017-03-18T08:18:25.156Z,2076
2017-03-18T08:19:36.365Z,2120
2017-03-18T08:20:47.365Z,2228
2017-03-18T08:21:58.356Z,2436
2017-03-18T08:23:09.364Z,2888
2017-03-18T08:24:20.366Z,2424
2017-03-18T08:25:31.368Z,2208
2017-03-18T08:26:42.350Z,2384
2017-03-18T08:27:53.748Z,2792
2017-03-18T08:29:04.744Z,2840
2017-03-18T08:30:15.729Z,2272
2017-03-18T08:31:26.773Z,2552
2017-03-18T08:32:37.766Z,2296
2017-03-18T08:33:48.768Z,2316
2017-03-18T08:34:59.969Z,2448
2017-03-18T08:36:10.962Z,1924
2017-03-18T08:37:22.161Z,1704
2017-03-18T08:38:33.164Z,1948
2017-03-18T08:39:44.355Z,2084
2017-03-18T08:40:55.351Z,1836
2017-03-18T08:42:06.531Z,2296
2017-03-18T08:43:17.521Z,2484
2017-03-18T08:44:28.522Z,2868
2017-03-18T08:45:39.525Z,2584
2017-03-18T08:46:50.526Z,2540
2017-03-18T08:48:01.527Z,2372
2017-03-18T08:49:12.518Z,2236
2017-03-18T08:50:23.514Z,2260
2017-03-18T08:51:34.531Z,2020
2017-03-18T08:52:45.580Z,2128
2017-03-18T08:53:56.784Z,2408
2017-03-18T08:55:07.784Z,2084
2017-03-18T08:56:18.780Z,1904
2017-03-18T08:57:29.770Z,2040
2017-03-18T08:58:40.963Z,2412
2017-03-18T08:59:51.955Z,2096
2017-03-18T09:01:03.147Z,2004
2017-03-18T09:02:14.339Z,2620
2017-03-18T09:03:25.596Z,3356
2017-03-18T09:04:36.588Z,2960
2017-03-18T09:05:47.777Z,3380
2017-03-18T09:06:59.184Z,3256
2017-03-18T09:08:10.175Z,3604
2017-03-18T09:09:21.180Z,4820
2017-03-18T09:10:32.180Z,6308
2017-03-18T09:11:43.167Z,7108
2017-03-18T09:12:54.162Z,6744
2017-03-18T09:14:05.416Z,5932
2017-03-18T09:15:16.406Z,5276
2017-03-18T09:16:27.410Z,5552
2017-03-18T09:17:38.417Z,6036
2017-03-18T09:18:49.409Z,5904
2017-03-18T09:20:00.606Z,6156
2017-03-18T09:21:11.798Z,5828
2017-03-18T09:22:22.792Z,4944
2017-03-18T09:23:33.789Z,3416
2017-03-18T09:24:44.790Z,3480
2017-03-18T09:25:55.784Z,4952
2017-03-18T09:27:06.778Z,4152
2017-03-18T09:28:17.785Z,3948
2017-03-18T09:29:28.795Z,3604
2017-03-18T09:30:39.786Z,3008
2017-03-18T09:31:50.767Z,2788
2017-03-18T09:33:01.766Z,3028
2017-03-18T09:34:13.167Z,2244
2017-03-18T09:35:24.194Z,2316
2017-03-18T09:36:35.400Z,2612
2017-03-18T09:37:46.398Z,2068
2017-03-18T09:38:57.417Z,1708
2017-03-18T09:40:08.670Z,1608
2017-03-18T09:41:19.673Z,1828
2017-03-18T09:42:31.063Z,2032
2017-03-18T09:43:42.266Z,2104
2017-03-18T09:44:53.274Z,2848
2017-03-18T09:46:04.265Z,4036
2017-03-18T09:47:15.458Z,4792
2017-03-18T09:48:26.461Z,4196
2017-03-18T09:49:37.864Z,4364
2017-03-18T09:50:49.114Z,5576
2017-03-18T09:52:00.311Z,6364
2017-03-18T09:53:11.307Z,6736
2017-03-18T09:54:22.309Z,6536
2017-03-18T09:55:33.324Z,6008
2017-03-18T09:56:44.324Z,6356
2017-03-18T09:57:55.327Z,6732
2017-03-18T09:59:06.320Z,6916
2017-03-18T10:00:17.309Z,5716
2017-03-18T10:01:28.355Z,5372
2017-03-18T10:02:39.561Z,5764
2017-03-18T10:03:50.558Z,6540
2017-03-18T10:05:01.558Z,6936
2017-03-18T10:06:12.552Z,8736
2017-03-18T10:07:23.538Z,10316
2017-03-18T10:08:34.540Z,10448
2017-03-18T10:09:45.539Z,11916
2017-03-18T10:10:56.531Z,11448
2017-03-18T10:12:07.570Z,10900
2017-03-18T10:13:18.572Z,10948
2017-03-18T10:14:29.578Z,12664
2017-03-18T10:15:40.778Z,10724
2017-03-18T10:16:51.769Z,9776
2017-03-18T10:18:02.762Z,11468
2017-03-18T10:19:13.758Z,12176
2017-03-18T10:20:24.763Z,8748
2017-03-18T10:21:35.758Z,7388
2017-03-18T10:22:46.798Z,5644
2017-03-18T10:23:57.838Z,5600
2017-03-18T10:25:08.836Z,6784
2017-03-18T10:26:20.026Z,6408
2017-03-18T10:27:31.428Z,6852
2017-03-18T10:28:42.428Z,7676
2017-03-18T10:29:53.432Z,8216
2017-03-18T10:31:04.428Z,7020
2017-03-18T10:32:15.422Z,8340
2017-03-18T10:33:26.480Z,8292
2017-03-18T10:34:37.486Z,10024
2017-03-18T10:35:48.473Z,10676
2017-03-18T10:36:59.473Z,10716
2017-03-18T10:38:10.482Z,10480
2017-03-18T10:39:21.501Z,11244
2017-03-18T10:40:32.493Z,10988
2017-03-18T10:41:43.492Z,11792
2017-03-18T10:42:54.492Z,10328
2017-03-18T10:44:05.544Z,9400
2017-03-18T10:45:16.743Z,9364
2017-03-18T10:46:28.140Z,9060
2017-03-18T10:47:39.332Z,8428
2017-03-18T10:48:50.337Z,8188
2017-03-18T10:50:01.378Z,8236
2017-03-18T10:51:12.403Z,7952
2017-03-18T10:52:23.412Z,7512
2017-03-18T10:53:34.415Z,6620
2017-03-18T10:54:45.472Z,5880
2017-03-18T10:55:56.672Z,6968
2017-03-18T10:57:07.665Z,7960
2017-03-18T10:58:18.659Z,8388
2017-03-18T10:59:29.660Z,8132
2017-03-18T11:00:41.060Z,8316
2017-03-18T11:01:52.266Z,8752
2017-03-18T11:03:03.683Z,9148
2017-03-18T11:04:14.676Z,9828
2017-03-18T11:05:25.684Z,9644
2017-03-18T11:06:36.681Z,10228
2017-03-18T11:07:47.684Z,10368
2017-03-18T11:08:58.688Z,9712
2017-03-18T11:10:09.683Z,9960
2017-03-18T11:11:20.688Z,10712
2017-03-18T11:12:31.674Z,11428
2017-03-18T11:13:42.683Z,11716
2017-03-18T11:14:53.891Z,12956
2017-03-18T11:16:05.133Z,27040
2017-03-18T11:17:16.135Z,22528
2017-03-18T11:18:27.136Z,17760
2017-03-18T11:19:38.137Z,22848
2017-03-18T11:20:49.132Z,19552
2017-03-18T11:22:00.123Z,18880
2017-03-18T11:23:11.128Z,21184
2017-03-18T11:24:22.145Z,20032
2017-03-18T11:25:33.144Z,14552
2017-03-18T11:26:44.403Z,13492
2017-03-18T11:27:55.403Z,13124
2017-03-18T11:29:06.406Z,11028
2017-03-18T11:30:17.623Z,9860
2017-03-18T11:31:28.620Z,9576
2017-03-18T11:32:39.621Z,8940
2017-03-18T11:33:50.618Z,9008
2017-03-18T11:35:01.629Z,8772
2017-03-18T11:36:12.624Z,8732
2017-03-18T11:37:23.879Z,9328
2017-03-18T11:38:34.881Z,9072
2017-03-18T11:39:46.086Z,9524
2017-03-18T11:40:57.090Z,12184
2017-03-18T11:42:08.102Z,12860
2017-03-18T11:43:19.302Z,13196
2017-03-18T11:44:30.298Z,10336
2017-03-18T11:45:41.503Z,8668
2017-03-18T11:46:52.507Z,10120
2017-03-18T11:48:03.756Z,13020
2017-03-18T11:49:14.761Z,9760
2017-03-18T11:50:25.761Z,7184
2017-03-18T11:51:36.752Z,6236
2017-03-18T11:52:47.756Z,7160
2017-03-18T11:53:58.991Z,7268
2017-03-18T11:55:09.991Z,6884
2017-03-18T11:56:21.000Z,7536
2017-03-18T11:57:32.000Z,10076
2017-03-18T11:58:43.007Z,10336
2017-03-18T11:59:54.285Z,10152
2017-03-18T12:01:05.285Z,9312
2017-03-18T12:02:16.285Z,9416
2017-03-18T12:03:27.314Z,7856
2017-03-18T12:04:38.306Z,7680
2017-03-18T12:05:49.297Z,7896
2017-03-18T12:07:00.299Z,7572
2017-03-18T12:08:11.300Z,8096
2017-03-18T12:09:22.360Z,8388
2017-03-18T12:10:33.376Z,8292
2017-03-18T12:11:44.417Z,8092
2017-03-18T12:12:55.434Z,8360
2017-03-18T12:14:06.455Z,9968
2017-03-18T12:15:17.459Z,10068
2017-03-18T12:16:28.461Z,9568
2017-03-18T12:17:39.459Z,6820
2017-03-18T12:18:50.479Z,7144
2017-03-18T12:20:01.733Z,9748
2017-03-18T12:21:12.730Z,10224
2017-03-18T12:22:23.735Z,9376
2017-03-18T12:23:34.743Z,9228
2017-03-18T12:24:45.738Z,10528
2017-03-18T12:25:56.732Z,11404
2017-03-18T12:27:07.768Z,11312
2017-03-18T12:28:18.967Z,9620
2017-03-18T12:29:29.973Z,8252
2017-03-18T12:30:40.972Z,8504
2017-03-18T12:31:51.975Z,8120
2017-03-18T12:33:02.975Z,7740
2017-03-18T12:34:13.988Z,7916
2017-03-18T12:35:25.244Z,8116
2017-03-18T12:36:36.235Z,9664
2017-03-18T12:37:47.443Z,11516
2017-03-18T12:38:58.683Z,11704
2017-03-18T12:40:09.690Z,11884
2017-03-18T12:41:20.914Z,11948
2017-03-18T12:42:31.910Z,10896
2017-03-18T12:43:42.919Z,10288
2017-03-18T12:44:54.160Z,9420
2017-03-18T12:46:05.423Z,9232
2017-03-18T12:47:16.423Z,8868
2017-03-18T12:48:27.624Z,8240
2017-03-18T12:49:38.631Z,7708
2017-03-18T12:50:49.668Z,6804
2017-03-18T12:52:00.671Z,6508
2017-03-18T12:53:11.669Z,6396
2017-03-18T12:54:22.670Z,5656
2017-03-18T12:55:33.675Z,5160
2017-03-18T12:56:44.724Z,5164
2017-03-18T12:57:55.928Z,5120
2017-03-18T12:59:06.932Z,5340
2017-03-18T13:00:17.932Z,4972
2017-03-18T13:01:29.131Z,4392
2017-03-18T13:02:40.329Z,4416
2017-03-18T13:03:51.340Z,4556
2017-03-18T13:05:02.344Z,4236
2017-03-18T13:06:13.337Z,3724
2017-03-18T13:07:24.583Z,3424
2017-03-18T13:08:35.790Z,3612
2017-03-18T13:09:46.789Z,4020
2017-03-18T13:10:58.001Z,4292
2017-03-18T13:12:09.019Z,4800
2017-03-18T13:13:20.018Z,5188
2017-03-18T13:14:31.025Z,6612
2017-03-18T13:15:42.015Z,7188
2017-03-18T13:16:53.019Z,6988
2017-03-18T13:18:04.089Z,7264
2017-03-18T13:19:15.099Z,7216
2017-03-18T13:20:26.318Z,6868
2017-03-18T13:21:37.307Z,7304
2017-03-18T13:22:48.312Z,7328
2017-03-18T13:23:59.319Z,6628
2017-03-18T13:25:10.524Z,5812
2017-03-18T13:26:21.533Z,4924
2017-03-18T13:27:32.537Z,4204
2017-03-18T13:28:43.526Z,3856
2017-03-18T13:29:54.519Z,3452
2017-03-18T13:31:05.513Z,3252
2017-03-18T13:32:16.507Z,3636
2017-03-18T13:33:27.508Z,3736
2017-03-18T13:34:38.565Z,3880
2017-03-18T13:35:49.565Z,4100
2017-03-18T13:37:00.564Z,4036
2017-03-18T13:38:11.765Z,3988
2017-03-18T13:39:22.763Z,4152
2017-03-18T13:40:33.773Z,4252
2017-03-18T13:41:44.780Z,4176
2017-03-18T13:42:55.974Z,3608
2017-03-18T13:44:06.986Z,3476
2017-03-18T13:45:17.994Z,3668
2017-03-18T13:46:28.984Z,3584
2017-03-18T13:47:39.984Z,3444
2017-03-18T13:48:50.987Z,3404
2017-03-18T13:50:02.056Z,3196
2017-03-18T13:51:13.298Z,3000
2017-03-18T13:52:24.299Z,3180
2017-03-18T13:53:35.297Z,3124
2017-03-18T13:54:46.499Z,3000
2017-03-18T13:55:57.751Z,2624
2017-03-18T13:57:08.967Z,2592
2017-03-18T13:58:19.966Z,3184
2017-03-18T13:59:31.189Z,3500
2017-03-18T14:00:42.260Z,4152
2017-03-18T14:01:53.264Z,4388
2017-03-18T14:03:04.289Z,4220
2017-03-18T14:04:15.294Z,3700
2017-03-18T14:05:26.296Z,3100
2017-03-18T14:06:37.288Z,2908
2017-03-18T14:07:48.292Z,2836
2017-03-18T14:08:59.291Z,2504
2017-03-18T14:10:10.289Z,2528
2017-03-18T14:11:21.539Z,3284
2017-03-18T14:12:32.533Z,3872
2017-03-18T14:13:43.532Z,4112
2017-03-18T14:14:54.534Z,4068
2017-03-18T14:16:05.526Z,3912
2017-03-18T14:17:16.729Z,4080
2017-03-18T14:18:27.922Z,4356
2017-03-18T14:19:38.977Z,4516
2017-03-18T14:20:49.976Z,4364
2017-03-18T14:22:00.973Z,4240
2017-03-18T14:23:12.219Z,4144
2017-03-18T14:24:23.227Z,3976
2017-03-18T14:25:34.244Z,3764
2017-03-18T14:26:45.265Z,3512
2017-03-18T14:27:56.474Z,3248
2017-03-18T14:29:07.471Z,2908
2017-03-18T14:30:18.468Z,3076
2017-03-18T14:31:29.659Z,3760
2017-03-18T14:32:40.912Z,4444
2017-03-18T14:33:51.922Z,3988
2017-03-18T14:35:02.926Z,3252
2017-03-18T14:36:13.921Z,2888
2017-03-18T14:37:24.931Z,2572
2017-03-18T14:38:35.924Z,2276
2017-03-18T14:39:47.133Z,1888
2017-03-18T14:40:58.126Z,1692
2017-03-18T14:42:09.359Z,1704
2017-03-18T14:43:20.612Z,1884
2017-03-18T14:44:31.616Z,2592
2017-03-18T14:45:42.607Z,2964
2017-03-18T14:46:53.603Z,2840
2017-03-18T14:48:04.608Z,2856
2017-03-18T14:49:15.598Z,2972
2017-03-18T14:50:26.599Z,2644
2017-03-18T14:51:37.595Z,2232
2017-03-18T14:52:48.626Z,2380
2017-03-18T14:53:59.870Z,2864
2017-03-18T14:55:11.062Z,2884
2017-03-18T14:56:22.070Z,3228
2017-03-18T14:57:33.067Z,3376
2017-03-18T14:58:44.272Z,3416
2017-03-18T14:59:55.279Z,3700
2017-03-18T15:01:06.272Z,4072
2017-03-18T15:02:17.269Z,4572
2017-03-18T15:03:28.467Z,4480
2017-03-18T15:04:39.656Z,4120
2017-03-18T15:05:50.909Z,3592
2017-03-18T15:07:01.910Z,3424
2017-03-18T15:08:12.914Z,3576
2017-03-18T15:09:23.920Z,3504
2017-03-18T15:10:34.958Z,3340
2017-03-18T15:11:45.953Z,3344
2017-03-18T15:12:57.154Z,3416
2017-03-18T15:14:08.157Z,4028
2017-03-18T15:15:19.162Z,4272
2017-03-18T15:16:30.362Z,4772
2017-03-18T15:17:41.377Z,5104
2017-03-18T15:18:52.785Z,4916
2017-03-18T15:20:03.781Z,4668
2017-03-18T15:21:14.822Z,4364
2017-03-18T15:22:25.849Z,4116
2017-03-18T15:23:36.857Z,3960
2017-03-18T15:24:47.854Z,3940
2017-03-18T15:25:59.064Z,4152
2017-03-18T15:27:10.265Z,4488
2017-03-18T15:28:21.263Z,4460
2017-03-18T15:29:32.264Z,4172
2017-03-18T15:30:43.295Z,3940
2017-03-18T15:31:54.342Z,3944
2017-03-18T15:33:05.338Z,3580
2017-03-18T15:34:16.372Z,3528
2017-03-18T15:35:27.570Z,3552
2017-03-18T15:36:38.577Z,3788
2017-03-18T15:37:49.790Z,3856
2017-03-18T15:39:00.781Z,3840
2017-03-18T15:40:11.776Z,4032
2017-03-18T15:41:22.799Z,4220
2017-03-18T15:42:34.044Z,4240
2017-03-18T15:43:45.045Z,4200
2017-03-18T15:44:56.044Z,3928
2017-03-18T15:46:07.044Z,3324
2017-03-18T15:47:18.135Z,2764
2017-03-18T15:48:29.196Z,2540
2017-03-18T15:49:40.201Z,2440
2017-03-18T15:50:51.221Z,2300
2017-03-18T15:52:02.219Z,2356
2017-03-18T15:53:13.240Z,2324
2017-03-18T15:54:24.257Z,2104
2017-03-18T15:55:35.262Z,1928
2017-03-18T15:56:46.958Z,1924
2017-03-18T15:57:57.964Z,1936
2017-03-18T15:59:09.045Z,1808
2017-03-18T16:00:20.276Z,1736
2017-03-18T16:01:32.118Z,1736
2017-03-18T16:02:43.403Z,1736
2017-03-18T16:03:56.177Z,1644
2017-03-18T16:05:07.625Z,1528
2017-03-18T16:06:19.345Z,1424
2017-03-18T16:07:30.450Z,1328
2017-03-18T16:08:42.973Z,1284
2017-03-18T16:09:54.508Z,1272
2017-03-18T16:11:05.547Z,1316
2017-03-18T16:12:17.555Z,1384
2017-03-18T16:13:28.710Z,1388
2017-03-18T16:14:39.714Z,1356
2017-03-18T16:15:50.707Z,1328
2017-03-18T16:17:01.861Z,1316
2017-03-18T16:18:14.595Z,1276
2017-03-18T16:19:26.210Z,1224
2017-03-18T16:20:37.259Z,1188
2017-03-18T16:21:49.343Z,1172